sensor_id;sensor_type;location;lat;lon;timestamp;pressure;altitude;pressure_sealevel;temperature;humidity
56042;BME280;48756;41.374;2.066;2022-11-24T00:00:53;100995.69;;;14.72;86.46
56042;BME280;48756;41.374;2.066;2022-11-24T00:03:18;100994.03;;;14.66;86.13
56042;BME280;48756;41.374;2.066;2022-11-24T00:05:44;100995.53;;;14.78;84.99
56042;BME280;48756;41.374;2.066;2022-11-24T00:08:09;100988.78;;;14.66;84.79
56042;BME280;48756;41.374;2.066;2022-11-24T00:10:34;100995.47;;;14.81;83.70
56042;BME280;48756;41.374;2.066;2022-11-24T00:13:00;100996.13;;;14.89;83.33
56042;BME280;48756;41.374;2.066;2022-11-24T00:15:25;100990.81;;;14.92;83.33
56042;BME280;48756;41.374;2.066;2022-11-24T00:17:50;100992.91;;;14.78;83.19
56042;BME280;48756;41.374;2.066;2022-11-24T00:20:19;100986.59;;;14.86;82.86
56042;BME280;48756;41.374;2.066;2022-11-24T00:22:44;100986.34;;;14.97;81.34
56042;BME280;48756;41.374;2.066;2022-11-24T00:25:10;100990.00;;;14.90;82.34
56042;BME280;48756;41.374;2.066;2022-11-24T00:27:35;100997.66;;;14.99;81.44
56042;BME280;48756;41.374;2.066;2022-11-24T00:30:00;101008.13;;;15.00;81.54
56042;BME280;48756;41.374;2.066;2022-11-24T00:32:29;101011.78;;;14.93;81.19
56042;BME280;48756;41.374;2.066;2022-11-24T00:34:54;101007.22;;;15.01;80.78
56042;BME280;48756;41.374;2.066;2022-11-24T00:37:19;101021.56;;;14.87;81.01
56042;BME280;48756;41.374;2.066;2022-11-24T00:39:45;101018.75;;;14.96;81.23
56042;BME280;48756;41.374;2.066;2022-11-24T00:42:10;101018.03;;;14.88;81.35
56042;BME280;48756;41.374;2.066;2022-11-24T00:44:35;101023.50;;;14.79;81.96
56042;BME280;48756;41.374;2.066;2022-11-24T00:47:01;101031.97;;;14.90;80.74
56042;BME280;48756;41.374;2.066;2022-11-24T00:49:26;101043.44;;;14.86;81.33
56042;BME280;48756;41.374;2.066;2022-11-24T00:51:52;101032.75;;;14.93;81.19
56042;BME280;48756;41.374;2.066;2022-11-24T00:54:17;101035.41;;;14.92;80.64
56042;BME280;48756;41.374;2.066;2022-11-24T00:56:43;101031.16;;;14.88;79.86
56042;BME280;48756;41.374;2.066;2022-11-24T00:59:08;101026.09;;;14.80;78.97
56042;BME280;48756;41.374;2.066;2022-11-24T01:01:33;101034.91;;;14.76;78.65
56042;BME280;48756;41.374;2.066;2022-11-24T01:03:59;101029.38;;;14.88;78.48
56042;BME280;48756;41.374;2.066;2022-11-24T01:06:27;101032.88;;;14.89;79.66
56042;BME280;48756;41.374;2.066;2022-11-24T01:08:54;101031.16;;;14.88;79.20
56042;BME280;48756;41.374;2.066;2022-11-24T01:11:21;101027.66;;;14.87;78.80
56042;BME280;48756;41.374;2.066;2022-11-24T01:13:47;101028.91;;;14.71;78.80
56042;BME280;48756;41.374;2.066;2022-11-24T01:16:17;101040.69;;;14.52;79.71
56042;BME280;48756;41.374;2.066;2022-11-24T01:18:43;101038.03;;;14.53;79.20
56042;BME280;48756;41.374;2.066;2022-11-24T01:21:09;101044.03;;;14.58;79.93
56042;BME280;48756;41.374;2.066;2022-11-24T01:23:34;101047.25;;;14.73;78.43
56042;BME280;48756;41.374;2.066;2022-11-24T01:26:02;101047.16;;;14.77;78.82
56042;BME280;48756;41.374;2.066;2022-11-24T01:28:27;101047.44;;;14.63;79.11
56042;BME280;48756;41.374;2.066;2022-11-24T01:30:59;101047.50;;;14.60;79.47
56042;BME280;48756;41.374;2.066;2022-11-24T01:33:28;101046.72;;;14.55;79.62
56042;BME280;48756;41.374;2.066;2022-11-24T01:35:54;101047.88;;;14.40;79.71
56042;BME280;48756;41.374;2.066;2022-11-24T01:38:20;101045.25;;;14.40;79.59
56042;BME280;48756;41.374;2.066;2022-11-24T01:40:46;101041.72;;;14.43;79.55
56042;BME280;48756;41.374;2.066;2022-11-24T01:43:29;101040.81;;;14.44;79.46
56042;BME280;48756;41.374;2.066;2022-11-24T01:45:55;101052.38;;;14.34;79.39
56042;BME280;48756;41.374;2.066;2022-11-24T01:48:35;101050.75;;;14.28;79.36
56042;BME280;48756;41.374;2.066;2022-11-24T01:51:14;101052.41;;;14.32;79.99
56042;BME280;48756;41.374;2.066;2022-11-24T01:53:42;101047.06;;;14.37;80.08
56042;BME280;48756;41.374;2.066;2022-11-24T01:56:09;101047.94;;;14.37;80.09
56042;BME280;48756;41.374;2.066;2022-11-24T01:58:35;101054.97;;;14.35;79.74
56042;BME280;48756;41.374;2.066;2022-11-24T02:01:02;101066.78;;;14.12;80.64
56042;BME280;48756;41.374;2.066;2022-11-24T02:03:29;101066.00;;;14.06;81.04
56042;BME280;48756;41.374;2.066;2022-11-24T02:06:00;101066.63;;;14.19;80.16
56042;BME280;48756;41.374;2.066;2022-11-24T02:08:31;101067.59;;;14.15;81.26
56042;BME280;48756;41.374;2.066;2022-11-24T02:11:00;101066.84;;;14.08;81.75
56042;BME280;48756;41.374;2.066;2022-11-24T02:13:26;101077.34;;;14.08;81.78
56042;BME280;48756;41.374;2.066;2022-11-24T02:15:51;101072.38;;;13.92;81.77
56042;BME280;48756;41.374;2.066;2022-11-24T02:18:17;101066.34;;;13.88;80.25
56042;BME280;48756;41.374;2.066;2022-11-24T02:20:42;101078.66;;;13.83;80.16
56042;BME280;48756;41.374;2.066;2022-11-24T02:23:11;101071.34;;;14.00;79.39
56042;BME280;48756;41.374;2.066;2022-11-24T02:28:24;101074.50;;;13.70;79.56
56042;BME280;48756;41.374;2.066;2022-11-24T02:30:51;101080.00;;;13.55;77.74
56042;BME280;48756;41.374;2.066;2022-11-24T02:33:17;101081.63;;;13.63;75.18
56042;BME280;48756;41.374;2.066;2022-11-24T02:35:44;101086.72;;;13.71;75.11
56042;BME280;48756;41.374;2.066;2022-11-24T02:38:12;101080.00;;;13.55;74.12
56042;BME280;48756;41.374;2.066;2022-11-24T02:40:39;101088.97;;;13.40;73.33
56042;BME280;48756;41.374;2.066;2022-11-24T02:43:09;101099.41;;;13.41;74.15
56042;BME280;48756;41.374;2.066;2022-11-24T02:45:35;101100.88;;;13.58;72.33
56042;BME280;48756;41.374;2.066;2022-11-24T02:48:00;101105.19;;;13.62;70.99
56042;BME280;48756;41.374;2.066;2022-11-24T02:50:26;101102.56;;;13.63;69.62
56042;BME280;48756;41.374;2.066;2022-11-24T02:52:51;101101.63;;;13.67;69.11
56042;BME280;48756;41.374;2.066;2022-11-24T02:55:16;101099.53;;;13.88;68.08
56042;BME280;48756;41.374;2.066;2022-11-24T02:57:42;101097.53;;;14.00;67.90
56042;BME280;48756;41.374;2.066;2022-11-24T03:00:08;101104.59;;;13.97;67.59
56042;BME280;48756;41.374;2.066;2022-11-24T03:02:33;101110.81;;;13.91;69.99
56042;BME280;48756;41.374;2.066;2022-11-24T03:04:59;101108.44;;;13.76;73.19
56042;BME280;48756;41.374;2.066;2022-11-24T03:07:24;101112.97;;;13.66;74.42
56042;BME280;48756;41.374;2.066;2022-11-24T03:09:49;101115.38;;;13.78;74.02
56042;BME280;48756;41.374;2.066;2022-11-24T03:12:15;101116.00;;;13.94;73.11
56042;BME280;48756;41.374;2.066;2022-11-24T03:14:40;101119.53;;;13.92;74.45
56042;BME280;48756;41.374;2.066;2022-11-24T03:17:05;101128.13;;;14.00;73.82
56042;BME280;48756;41.374;2.066;2022-11-24T03:19:31;101134.16;;;14.05;74.49
56042;BME280;48756;41.374;2.066;2022-11-24T03:21:57;101136.81;;;14.02;75.75
56042;BME280;48756;41.374;2.066;2022-11-24T03:24:22;101136.09;;;13.94;77.63
56042;BME280;48756;41.374;2.066;2022-11-24T03:26:48;101144.22;;;13.77;78.57
56042;BME280;48756;41.374;2.066;2022-11-24T03:29:13;101141.94;;;13.56;78.01
56042;BME280;48756;41.374;2.066;2022-11-24T03:31:38;101149.78;;;13.59;76.44
56042;BME280;48756;41.374;2.066;2022-11-24T03:34:03;101141.03;;;13.57;74.83
56042;BME280;48756;41.374;2.066;2022-11-24T03:36:29;101136.66;;;13.57;73.94
56042;BME280;48756;41.374;2.066;2022-11-24T03:38:54;101141.91;;;13.59;71.87
56042;BME280;48756;41.374;2.066;2022-11-24T03:41:20;101141.16;;;13.49;71.58
56042;BME280;48756;41.374;2.066;2022-11-24T03:43:45;101149.75;;;13.60;71.66
56042;BME280;48756;41.374;2.066;2022-11-24T03:46:11;101146.97;;;13.69;72.33
56042;BME280;48756;41.374;2.066;2022-11-24T03:48:36;101147.53;;;13.31;73.01
56042;BME280;48756;41.374;2.066;2022-11-24T03:51:02;101146.53;;;13.41;72.64
56042;BME280;48756;41.374;2.066;2022-11-24T03:53:28;101150.09;;;13.37;70.49
56042;BME280;48756;41.374;2.066;2022-11-24T03:55:54;101155.28;;;13.40;70.59
56042;BME280;48756;41.374;2.066;2022-11-24T03:58:19;101151.53;;;13.57;69.65
56042;BME280;48756;41.374;2.066;2022-11-24T04:00:47;101163.88;;;13.48;70.93
56042;BME280;48756;41.374;2.066;2022-11-24T04:03:12;101163.03;;;13.46;71.61
56042;BME280;48756;41.374;2.066;2022-11-24T04:05:38;101168.06;;;13.60;72.83
56042;BME280;48756;41.374;2.066;2022-11-24T04:08:03;101179.16;;;13.76;75.79
56042;BME280;48756;41.374;2.066;2022-11-24T04:10:30;101182.28;;;13.99;74.87
56042;BME280;48756;41.374;2.066;2022-11-24T04:12:55;101186.50;;;14.09;75.08
56042;BME280;48756;41.374;2.066;2022-11-24T04:15:21;101185.72;;;14.03;74.50
56042;BME280;48756;41.374;2.066;2022-11-24T04:17:47;101197.75;;;14.15;74.97
56042;BME280;48756;41.374;2.066;2022-11-24T04:20:12;101188.66;;;13.85;69.32
56042;BME280;48756;41.374;2.066;2022-11-24T04:22:38;101189.66;;;13.74;67.11
56042;BME280;48756;41.374;2.066;2022-11-24T04:25:04;101195.31;;;13.45;63.74
56042;BME280;48756;41.374;2.066;2022-11-24T04:27:31;101201.25;;;13.60;62.25
56042;BME280;48756;41.374;2.066;2022-11-24T04:29:56;101192.56;;;13.55;61.55
56042;BME280;48756;41.374;2.066;2022-11-24T04:32:24;101197.75;;;13.58;61.42
56042;BME280;48756;41.374;2.066;2022-11-24T04:34:50;101205.56;;;13.64;61.00
56042;BME280;48756;41.374;2.066;2022-11-24T04:37:15;101216.78;;;13.70;59.74
56042;BME280;48756;41.374;2.066;2022-11-24T04:39:41;101203.78;;;13.66;59.82
56042;BME280;48756;41.374;2.066;2022-11-24T04:42:06;101207.44;;;13.53;59.88
56042;BME280;48756;41.374;2.066;2022-11-24T04:44:32;101205.50;;;13.67;60.06
56042;BME280;48756;41.374;2.066;2022-11-24T04:46:57;101210.00;;;13.56;60.20
56042;BME280;48756;41.374;2.066;2022-11-24T04:49:22;101213.75;;;13.39;60.45
56042;BME280;48756;41.374;2.066;2022-11-24T04:51:48;101213.78;;;13.35;60.35
56042;BME280;48756;41.374;2.066;2022-11-24T04:54:13;101211.34;;;13.23;61.50
56042;BME280;48756;41.374;2.066;2022-11-24T04:56:39;101205.84;;;13.42;61.14
56042;BME280;48756;41.374;2.066;2022-11-24T04:59:05;101210.25;;;13.39;61.31
56042;BME280;48756;41.374;2.066;2022-11-24T05:01:31;101220.00;;;13.28;62.24
56042;BME280;48756;41.374;2.066;2022-11-24T05:03:56;101216.63;;;13.20;62.88
56042;BME280;48756;41.374;2.066;2022-11-24T05:06:22;101216.50;;;13.27;63.21
56042;BME280;48756;41.374;2.066;2022-11-24T05:08:48;101219.22;;;13.20;63.48
56042;BME280;48756;41.374;2.066;2022-11-24T05:11:14;101225.44;;;13.06;63.23
56042;BME280;48756;41.374;2.066;2022-11-24T05:13:40;101226.97;;;13.29;62.53
56042;BME280;48756;41.374;2.066;2022-11-24T05:16:05;101227.09;;;13.18;62.64
56042;BME280;48756;41.374;2.066;2022-11-24T05:18:31;101225.50;;;13.03;63.18
56042;BME280;48756;41.374;2.066;2022-11-24T05:20:56;101226.22;;;13.19;62.88
56042;BME280;48756;41.374;2.066;2022-11-24T05:23:22;101226.97;;;13.27;62.46
56042;BME280;48756;41.374;2.066;2022-11-24T05:25:47;101230.56;;;13.17;63.07
56042;BME280;48756;41.374;2.066;2022-11-24T05:28:13;101238.38;;;13.23;63.62
56042;BME280;48756;41.374;2.066;2022-11-24T05:30:39;101244.44;;;13.25;62.49
56042;BME280;48756;41.374;2.066;2022-11-24T05:33:10;101247.22;;;13.10;62.68
56042;BME280;48756;41.374;2.066;2022-11-24T05:35:36;101243.78;;;13.05;62.60
56042;BME280;48756;41.374;2.066;2022-11-24T05:38:02;101251.63;;;13.05;62.00
56042;BME280;48756;41.374;2.066;2022-11-24T05:40:28;101246.50;;;12.97;62.13
56042;BME280;48756;41.374;2.066;2022-11-24T05:42:53;101241.91;;;13.21;61.35
56042;BME280;48756;41.374;2.066;2022-11-24T05:45:19;101248.91;;;13.15;62.77
56042;BME280;48756;41.374;2.066;2022-11-24T05:47:45;101250.63;;;13.20;61.72
56042;BME280;48756;41.374;2.066;2022-11-24T05:50:12;101257.44;;;13.31;60.92
56042;BME280;48756;41.374;2.066;2022-11-24T05:52:38;101258.50;;;13.20;61.41
56042;BME280;48756;41.374;2.066;2022-11-24T05:55:04;101262.53;;;13.45;59.83
56042;BME280;48756;41.374;2.066;2022-11-24T05:57:29;101259.94;;;13.43;61.48
56042;BME280;48756;41.374;2.066;2022-11-24T05:59:55;101257.44;;;13.31;60.55
56042;BME280;48756;41.374;2.066;2022-11-24T06:02:20;101269.94;;;13.05;62.03
56042;BME280;48756;41.374;2.066;2022-11-24T06:04:45;101271.84;;;12.89;62.49
56042;BME280;48756;41.374;2.066;2022-11-24T06:07:11;101275.38;;;12.85;62.67
56042;BME280;48756;41.374;2.066;2022-11-24T06:09:37;101279.44;;;13.16;62.60
56042;BME280;48756;41.374;2.066;2022-11-24T06:12:03;101279.09;;;13.45;62.21
56042;BME280;48756;41.374;2.066;2022-11-24T06:14:29;101281.16;;;13.19;62.04
56042;BME280;48756;41.374;2.066;2022-11-24T06:16:54;101288.97;;;13.22;63.23
56042;BME280;48756;41.374;2.066;2022-11-24T06:19:19;101290.72;;;13.22;63.44
56042;BME280;48756;41.374;2.066;2022-11-24T06:21:45;101286.28;;;13.28;63.08
56042;BME280;48756;41.374;2.066;2022-11-24T06:24:10;101283.53;;;13.40;63.10
56042;BME280;48756;41.374;2.066;2022-11-24T06:26:35;101288.06;;;13.26;64.76
56042;BME280;48756;41.374;2.066;2022-11-24T06:29:01;101282.00;;;13.23;64.63
56042;BME280;48756;41.374;2.066;2022-11-24T06:31:26;101273.31;;;13.21;63.43
56042;BME280;48756;41.374;2.066;2022-11-24T06:33:51;101284.00;;;12.96;64.18
56042;BME280;48756;41.374;2.066;2022-11-24T06:36:17;101280.69;;;12.77;65.65
56042;BME280;48756;41.374;2.066;2022-11-24T06:38:42;101279.50;;;13.07;64.03
56042;BME280;48756;41.374;2.066;2022-11-24T06:41:12;101284.88;;;12.97;65.71
56042;BME280;48756;41.374;2.066;2022-11-24T06:43:37;101287.66;;;12.80;66.28
56042;BME280;48756;41.374;2.066;2022-11-24T06:46:03;101293.69;;;12.85;64.78
56042;BME280;48756;41.374;2.066;2022-11-24T06:48:28;101291.41;;;12.50;66.93
56042;BME280;48756;41.374;2.066;2022-11-24T06:50:57;101301.06;;;12.40;66.43
56042;BME280;48756;41.374;2.066;2022-11-24T06:53:23;101302.69;;;12.55;65.90
56042;BME280;48756;41.374;2.066;2022-11-24T06:55:48;101304.53;;;12.47;67.08
56042;BME280;48756;41.374;2.066;2022-11-24T06:58:14;101302.69;;;12.56;67.23
56042;BME280;48756;41.374;2.066;2022-11-24T07:00:40;101308.53;;;12.83;66.37
56042;BME280;48756;41.374;2.066;2022-11-24T07:03:06;101304.06;;;12.97;65.25
56042;BME280;48756;41.374;2.066;2022-11-24T07:05:31;101310.09;;;13.01;64.79
56042;BME280;48756;41.374;2.066;2022-11-24T07:07:59;101321.47;;;13.00;63.93
56042;BME280;48756;41.374;2.066;2022-11-24T07:10:25;101316.63;;;12.57;66.74
56042;BME280;48756;41.374;2.066;2022-11-24T07:12:50;101321.44;;;13.01;65.35
56042;BME280;48756;41.374;2.066;2022-11-24T07:15:19;101325.25;;;12.65;66.03
56042;BME280;48756;41.374;2.066;2022-11-24T07:17:44;101330.38;;;12.77;66.68
56042;BME280;48756;41.374;2.066;2022-11-24T07:20:09;101332.03;;;12.87;65.34
56042;BME280;48756;41.374;2.066;2022-11-24T07:22:34;101334.66;;;12.86;65.82
56042;BME280;48756;41.374;2.066;2022-11-24T07:25:00;101344.25;;;12.90;66.10
56042;BME280;48756;41.374;2.066;2022-11-24T07:27:26;101340.53;;;13.09;65.99
56042;BME280;48756;41.374;2.066;2022-11-24T07:29:51;101340.06;;;12.65;66.30
56042;BME280;48756;41.374;2.066;2022-11-24T07:32:17;101356.66;;;12.61;65.61
56042;BME280;48756;41.374;2.066;2022-11-24T07:34:45;101355.22;;;12.23;67.21
56042;BME280;48756;41.374;2.066;2022-11-24T07:37:11;101364.66;;;12.41;67.90
56042;BME280;48756;41.374;2.066;2022-11-24T07:39:36;101366.25;;;12.62;66.59
56042;BME280;48756;41.374;2.066;2022-11-24T07:42:01;101363.59;;;12.65;66.95
56042;BME280;48756;41.374;2.066;2022-11-24T07:44:29;101354.91;;;12.61;66.31
56042;BME280;48756;41.374;2.066;2022-11-24T07:46:54;101345.31;;;12.68;65.94
56042;BME280;48756;41.374;2.066;2022-11-24T07:49:19;101351.63;;;12.35;67.50
56042;BME280;48756;41.374;2.066;2022-11-24T07:51:45;101348.25;;;12.20;69.13
56042;BME280;48756;41.374;2.066;2022-11-24T07:54:10;101351.31;;;12.77;67.80
56042;BME280;48756;41.374;2.066;2022-11-24T07:56:36;101359.91;;;12.92;65.96
56042;BME280;48756;41.374;2.066;2022-11-24T07:59:01;101367.59;;;13.08;65.82
56042;BME280;48756;41.374;2.066;2022-11-24T08:01:27;101361.28;;;13.31;65.45
56042;BME280;48756;41.374;2.066;2022-11-24T08:03:52;101362.97;;;13.38;64.82
56042;BME280;48756;41.374;2.066;2022-11-24T08:06:20;101366.69;;;13.11;64.57
56042;BME280;48756;41.374;2.066;2022-11-24T08:08:46;101383.66;;;12.63;67.51
56042;BME280;48756;41.374;2.066;2022-11-24T08:11:15;101380.78;;;12.98;65.82
56042;BME280;48756;41.374;2.066;2022-11-24T08:13:41;101375.88;;;13.52;65.00
56042;BME280;48756;41.374;2.066;2022-11-24T08:16:08;101369.72;;;13.56;63.92
56042;BME280;48756;41.374;2.066;2022-11-24T08:18:34;101373.06;;;13.70;63.01
56042;BME280;48756;41.374;2.066;2022-11-24T08:21:00;101377.84;;;13.36;63.44
56042;BME280;48756;41.374;2.066;2022-11-24T08:23:25;101386.75;;;13.10;65.08
56042;BME280;48756;41.374;2.066;2022-11-24T08:25:51;101384.97;;;13.18;65.22
56042;BME280;48756;41.374;2.066;2022-11-24T08:28:18;101394.00;;;13.70;64.34
56042;BME280;48756;41.374;2.066;2022-11-24T08:30:44;101390.50;;;13.71;63.40
56042;BME280;48756;41.374;2.066;2022-11-24T08:33:09;101397.41;;;13.76;62.58
56042;BME280;48756;41.374;2.066;2022-11-24T08:35:35;101395.88;;;14.29;61.88
56042;BME280;48756;41.374;2.066;2022-11-24T08:38:04;101388.97;;;14.21;60.50
56042;BME280;48756;41.374;2.066;2022-11-24T08:40:32;101391.13;;;13.91;61.69
56042;BME280;48756;41.374;2.066;2022-11-24T08:42:58;101388.59;;;13.85;61.87
56042;BME280;48756;41.374;2.066;2022-11-24T08:45:24;101398.69;;;14.14;62.47
56042;BME280;48756;41.374;2.066;2022-11-24T08:47:50;101392.53;;;14.18;61.20
56042;BME280;48756;41.374;2.066;2022-11-24T08:50:16;101395.75;;;14.37;61.05
56042;BME280;48756;41.374;2.066;2022-11-24T08:52:44;101397.19;;;13.96;61.52
56042;BME280;48756;41.374;2.066;2022-11-24T08:55:09;101412.72;;;13.38;64.26
56042;BME280;48756;41.374;2.066;2022-11-24T08:57:35;101416.75;;;13.66;64.63
56042;BME280;48756;41.374;2.066;2022-11-24T09:00:01;101412.50;;;13.56;65.57
56042;BME280;48756;41.374;2.066;2022-11-24T09:02:26;101420.53;;;13.41;66.94
56042;BME280;48756;41.374;2.066;2022-11-24T09:04:51;101409.88;;;13.56;66.39
56042;BME280;48756;41.374;2.066;2022-11-24T09:07:17;101424.97;;;14.09;67.59
56042;BME280;48756;41.374;2.066;2022-11-24T09:09:42;101413.44;;;14.21;68.41
56042;BME280;48756;41.374;2.066;2022-11-24T09:12:08;101404.41;;;14.42;70.88
56042;BME280;48756;41.374;2.066;2022-11-24T09:14:33;101393.53;;;14.08;64.65
56042;BME280;48756;41.374;2.066;2022-11-24T09:16:58;101396.78;;;14.25;63.14
56042;BME280;48756;41.374;2.066;2022-11-24T09:19:24;101390.97;;;14.05;64.51
56042;BME280;48756;41.374;2.066;2022-11-24T09:21:49;101397.41;;;14.43;63.84
56042;BME280;48756;41.374;2.066;2022-11-24T09:24:14;101396.19;;;14.66;63.51
56042;BME280;48756;41.374;2.066;2022-11-24T09:26:40;101383.69;;;14.24;64.82
56042;BME280;48756;41.374;2.066;2022-11-24T09:29:05;101388.25;;;14.73;63.38
56042;BME280;48756;41.374;2.066;2022-11-24T09:31:35;101388.03;;;14.85;62.47
56042;BME280;48756;41.374;2.066;2022-11-24T09:34:01;101388.47;;;14.59;62.71
56042;BME280;48756;41.374;2.066;2022-11-24T09:36:30;101389.28;;;14.62;62.69
56042;BME280;48756;41.374;2.066;2022-11-24T09:38:56;101378.69;;;15.21;62.89
56042;BME280;48756;41.374;2.066;2022-11-24T09:49:29;101388.19;;;15.26;59.65
56042;BME280;48756;41.374;2.066;2022-11-24T09:51:55;101386.72;;;15.56;59.33
56042;BME280;48756;41.374;2.066;2022-11-24T09:54:22;101405.00;;;15.16;60.04
56042;BME280;48756;41.374;2.066;2022-11-24T09:56:50;101404.59;;;15.39;59.29
56042;BME280;48756;41.374;2.066;2022-11-24T09:59:19;101398.59;;;15.79;58.33
56042;BME280;48756;41.374;2.066;2022-11-24T10:01:46;101398.91;;;15.64;59.01
56042;BME280;48756;41.374;2.066;2022-11-24T10:04:21;101405.94;;;15.63;57.28
56042;BME280;48756;41.374;2.066;2022-11-24T10:19:55;101385.84;;;16.41;57.34
56042;BME280;48756;41.374;2.066;2022-11-24T10:22:32;101376.19;;;16.41;56.77
56042;BME280;48756;41.374;2.066;2022-11-24T10:27:44;101380.34;;;16.50;55.53
56042;BME280;48756;41.374;2.066;2022-11-24T10:30:11;101376.53;;;16.26;56.00
56042;BME280;48756;41.374;2.066;2022-11-24T10:32:39;101372.16;;;16.64;55.71
56042;BME280;48756;41.374;2.066;2022-11-24T10:35:27;101365.56;;;16.46;55.27
56042;BME280;48756;41.374;2.066;2022-11-24T10:40:40;101366.66;;;16.37;55.47
56042;BME280;48756;41.374;2.066;2022-11-24T10:43:04;101353.31;;;16.08;56.26
56042;BME280;48756;41.374;2.066;2022-11-24T10:45:34;101361.84;;;16.17;56.79
56042;BME280;48756;41.374;2.066;2022-11-24T10:48:02;101361.69;;;16.23;56.77
56042;BME280;48756;41.374;2.066;2022-11-24T10:50:31;101358.63;;;16.42;56.04
56042;BME280;48756;41.374;2.066;2022-11-24T10:58:19;101354.13;;;16.47;55.48
56042;BME280;48756;41.374;2.066;2022-11-24T11:00:45;101349.31;;;16.64;56.00
56042;BME280;48756;41.374;2.066;2022-11-24T11:03:15;101346.41;;;17.10;55.53
56042;BME280;48756;41.374;2.066;2022-11-24T11:05:41;101350.59;;;16.48;55.64
56042;BME280;48756;41.374;2.066;2022-11-24T11:08:15;101334.97;;;16.79;55.02
56042;BME280;48756;41.374;2.066;2022-11-24T11:10:42;101331.94;;;17.27;53.88
56042;BME280;48756;41.374;2.066;2022-11-24T11:13:21;101327.59;;;17.55;53.70
56042;BME280;48756;41.374;2.066;2022-11-24T11:15:47;101311.59;;;17.32;54.18
56042;BME280;48756;41.374;2.066;2022-11-24T11:18:15;101307.19;;;17.32;53.65
56042;BME280;48756;41.374;2.066;2022-11-24T11:20:49;101304.06;;;17.49;54.09
56042;BME280;48756;41.374;2.066;2022-11-24T11:23:18;101297.09;;;17.48;55.53
56042;BME280;48756;41.374;2.066;2022-11-24T11:25:45;101286.94;;;17.64;55.28
56042;BME280;48756;41.374;2.066;2022-11-24T11:28:18;101287.97;;;17.89;55.57
56042;BME280;48756;41.374;2.066;2022-11-24T11:33:21;101289.00;;;18.40;61.09
56042;BME280;48756;41.374;2.066;2022-11-24T11:35:47;101275.38;;;18.78;59.13
56042;BME280;48756;41.374;2.066;2022-11-24T11:38:13;101271.88;;;18.78;57.58
56042;BME280;48756;41.374;2.066;2022-11-24T11:40:38;101259.97;;;18.91;57.74
56042;BME280;48756;41.374;2.066;2022-11-24T11:45:44;101264.22;;;18.95;62.15
56042;BME280;48756;41.374;2.066;2022-11-24T11:48:22;101267.19;;;18.34;66.77
56042;BME280;48756;41.374;2.066;2022-11-24T11:51:34;101258.25;;;18.39;67.79
56042;BME280;48756;41.374;2.066;2022-11-24T11:53:55;101257.22;;;18.69;67.12
56042;BME280;48756;41.374;2.066;2022-11-24T12:04:14;101223.00;;;18.91;69.45
56042;BME280;48756;41.374;2.066;2022-11-24T12:06:54;101221.63;;;18.81;68.98
56042;BME280;48756;41.374;2.066;2022-11-24T12:14:31;101214.69;;;18.52;70.25
56042;BME280;48756;41.374;2.066;2022-11-24T12:17:25;101198.38;;;18.41;71.23
56042;BME280;48756;41.374;2.066;2022-11-24T12:22:47;101188.66;;;18.16;73.83
56042;BME280;48756;41.374;2.066;2022-11-24T12:30:25;101182.84;;;18.05;76.65
56042;BME280;48756;41.374;2.066;2022-11-24T12:33:19;101168.06;;;18.01;76.87
56042;BME280;48756;41.374;2.066;2022-11-24T12:35:56;101159.38;;;17.97;80.63
56042;BME280;48756;41.374;2.066;2022-11-24T12:43:26;101152.78;;;17.56;85.85
56042;BME280;48756;41.374;2.066;2022-11-24T12:45:58;101158.22;;;17.52;85.66
56042;BME280;48756;41.374;2.066;2022-11-24T12:48:51;101162.16;;;17.65;83.79
56042;BME280;48756;41.374;2.066;2022-11-24T12:51:18;101154.81;;;17.20;86.12
56042;BME280;48756;41.374;2.066;2022-11-24T12:53:45;101156.28;;;16.99;87.34
56042;BME280;48756;41.374;2.066;2022-11-24T12:56:11;101148.25;;;16.73;88.14
56042;BME280;48756;41.374;2.066;2022-11-24T13:06:24;101117.19;;;17.15;87.06
56042;BME280;48756;41.374;2.066;2022-11-24T13:08:52;101117.88;;;17.22;86.97
56042;BME280;48756;41.374;2.066;2022-11-24T13:13:55;101103.63;;;17.55;86.99
56042;BME280;48756;41.374;2.066;2022-11-24T13:16:20;101099.03;;;17.90;86.56
56042;BME280;48756;41.374;2.066;2022-11-24T13:18:59;101100.75;;;18.16;86.38
56042;BME280;48756;41.374;2.066;2022-11-24T13:24:34;101084.50;;;18.51;84.16
56042;BME280;48756;41.374;2.066;2022-11-24T13:29:27;101076.28;;;18.60;85.08
56042;BME280;48756;41.374;2.066;2022-11-24T13:31:55;101079.50;;;18.69;84.55
56042;BME280;48756;41.374;2.066;2022-11-24T13:39:57;101070.66;;;18.70;81.32
56042;BME280;48756;41.374;2.066;2022-11-24T13:42:24;101062.81;;;18.68;78.60
56042;BME280;48756;41.374;2.066;2022-11-24T13:45:02;101057.34;;;18.73;77.98
56042;BME280;48756;41.374;2.066;2022-11-24T13:47:29;101059.78;;;18.79;78.73
56042;BME280;48756;41.374;2.066;2022-11-24T13:49:55;101063.38;;;18.76;77.73
56042;BME280;48756;41.374;2.066;2022-11-24T13:52:40;101054.22;;;18.63;76.12
56042;BME280;48756;41.374;2.066;2022-11-24T13:57:48;101040.41;;;19.02;70.14
56042;BME280;48756;41.374;2.066;2022-11-24T14:00:28;101042.84;;;19.06;68.92
56042;BME280;48756;41.374;2.066;2022-11-24T14:02:56;101047.88;;;19.12;65.09
56042;BME280;48756;41.374;2.066;2022-11-24T14:05:26;101036.72;;;19.06;66.26
56042;BME280;48756;41.374;2.066;2022-11-24T14:07:55;101034.22;;;19.23;63.95
56042;BME280;48756;41.374;2.066;2022-11-24T14:10:27;101044.81;;;19.23;63.75
56042;BME280;48756;41.374;2.066;2022-11-24T14:15:38;101034.06;;;19.06;62.59
56042;BME280;48756;41.374;2.066;2022-11-24T14:18:15;101035.47;;;18.92;60.40
56042;BME280;48756;41.374;2.066;2022-11-24T14:20:40;101038.88;;;18.73;58.01
56042;BME280;48756;41.374;2.066;2022-11-24T14:23:07;101027.06;;;18.83;56.38